sensor_id;sensor_type;location;lat;lon;timestamp;P1;durP1;ratioP1;P2;durP2;ratioP2
44766;SDS011;30487;48.716;9.272;2022-11-20T00:01:17;3.65;;;2.20;;
44766;SDS011;30487;48.716;9.272;2022-11-20T00:03:45;4.95;;;2.40;;
44766;SDS011;30487;48.716;9.272;2022-11-20T00:06:11;4.07;;;2.40;;
44766;SDS011;30487;48.716;9.272;2022-11-20T00:08:39;5.15;;;2.20;;
44766;SDS011;30487;48.716;9.272;2022-11-20T00:13:35;4.85;;;2.67;;
44766;SDS011;30487;48.716;9.272;2022-11-20T00:16:02;6.13;;;2.40;;
44766;SDS011;30487;48.716;9.272;2022-11-20T00:18:29;5.85;;;2.72;;
44766;SDS011;30487;48.716;9.272;2022-11-20T00:21:04;6.28;;;2.38;;
44766;SDS011;30487;48.716;9.272;2022-11-20T00:23:31;4.20;;;2.65;;
44766;SDS011;30487;48.716;9.272;2022-11-20T00:26:00;5.75;;;2.78;;
44766;SDS011;30487;48.716;9.272;2022-11-20T00:28:27;4.15;;;2.35;;
44766;SDS011;30487;48.716;9.272;2022-11-20T00:30:59;4.05;;;2.20;;
44766;SDS011;30487;48.716;9.272;2022-11-20T00:33:27;4.85;;;2.45;;
44766;SDS011;30487;48.716;9.272;2022-11-20T00:35:53;4.10;;;2.35;;
44766;SDS011;30487;48.716;9.272;2022-11-20T00:38:18;5.90;;;2.88;;
44766;SDS011;30487;48.716;9.272;2022-11-20T00:40:44;6.63;;;2.53;;
44766;SDS011;30487;48.716;9.272;2022-11-20T00:43:09;5.10;;;2.30;;
44766;SDS011;30487;48.716;9.272;2022-11-20T00:45:35;4.53;;;2.42;;
44766;SDS011;30487;48.716;9.272;2022-11-20T00:48:00;4.15;;;1.98;;
44766;SDS011;30487;48.716;9.272;2022-11-20T00:50:26;3.85;;;2.17;;
44766;SDS011;30487;48.716;9.272;2022-11-20T00:52:51;4.20;;;2.30;;
44766;SDS011;30487;48.716;9.272;2022-11-20T00:55:17;4.85;;;2.10;;
44766;SDS011;30487;48.716;9.272;2022-11-20T00:57:42;5.78;;;2.00;;
44766;SDS011;30487;48.716;9.272;2022-11-20T01:00:08;4.80;;;2.38;;
44766;SDS011;30487;48.716;9.272;2022-11-20T01:02:34;5.03;;;2.17;;
44766;SDS011;30487;48.716;9.272;2022-11-20T01:04:59;4.85;;;2.58;;
44766;SDS011;30487;48.716;9.272;2022-11-20T01:07:25;4.82;;;2.45;;
44766;SDS011;30487;48.716;9.272;2022-11-20T01:09:51;3.72;;;2.10;;
44766;SDS011;30487;48.716;9.272;2022-11-20T01:12:16;3.63;;;2.00;;
44766;SDS011;30487;48.716;9.272;2022-11-20T01:14:42;5.32;;;2.00;;
44766;SDS011;30487;48.716;9.272;2022-11-20T01:17:07;4.85;;;2.35;;
44766;SDS011;30487;48.716;9.272;2022-11-20T01:19:33;4.72;;;2.03;;
44766;SDS011;30487;48.716;9.272;2022-11-20T01:21:58;5.38;;;1.83;;
44766;SDS011;30487;48.716;9.272;2022-11-20T01:24:24;3.75;;;1.88;;
44766;SDS011;30487;48.716;9.272;2022-11-20T01:26:50;3.83;;;1.90;;
44766;SDS011;30487;48.716;9.272;2022-11-20T01:29:18;3.17;;;1.80;;
44766;SDS011;30487;48.716;9.272;2022-11-20T01:31:46;2.67;;;1.25;;
44766;SDS011;30487;48.716;9.272;2022-11-20T01:34:13;3.35;;;1.60;;
44766;SDS011;30487;48.716;9.272;2022-11-20T01:36:41;3.30;;;1.63;;
44766;SDS011;30487;48.716;9.272;2022-11-20T01:39:09;4.00;;;1.67;;
44766;SDS011;30487;48.716;9.272;2022-11-20T01:41:37;2.88;;;1.30;;
44766;SDS011;30487;48.716;9.272;2022-11-20T01:44:22;3.28;;;1.65;;
44766;SDS011;30487;48.716;9.272;2022-11-20T01:47:17;3.83;;;1.40;;
44766;SDS011;30487;48.716;9.272;2022-11-20T01:50:10;3.33;;;1.38;;
44766;SDS011;30487;48.716;9.272;2022-11-20T01:52:42;2.60;;;1.55;;
44766;SDS011;30487;48.716;9.272;2022-11-20T01:55:34;4.88;;;1.40;;
44766;SDS011;30487;48.716;9.272;2022-11-20T01:58:04;2.92;;;1.65;;
44766;SDS011;30487;48.716;9.272;2022-11-20T02:00:30;2.63;;;1.50;;
44766;SDS011;30487;48.716;9.272;2022-11-20T02:02:57;2.47;;;1.60;;
44766;SDS011;30487;48.716;9.272;2022-11-20T02:05:28;3.65;;;1.73;;
44766;SDS011;30487;48.716;9.272;2022-11-20T02:07:55;2.88;;;1.50;;
44766;SDS011;30487;48.716;9.272;2022-11-20T02:10:23;3.15;;;1.40;;
44766;SDS011;30487;48.716;9.272;2022-11-20T02:12:48;4.15;;;1.73;;
44766;SDS011;30487;48.716;9.272;2022-11-20T02:15:33;3.30;;;1.70;;
44766;SDS011;30487;48.716;9.272;2022-11-20T02:17:59;3.50;;;1.50;;
44766;SDS011;30487;48.716;9.272;2022-11-20T02:20:24;4.70;;;1.85;;
44766;SDS011;30487;48.716;9.272;2022-11-20T02:22:53;4.18;;;1.80;;
44766;SDS011;30487;48.716;9.272;2022-11-20T02:25:23;3.50;;;1.90;;
44766;SDS011;30487;48.716;9.272;2022-11-20T02:27:50;4.00;;;1.95;;
44766;SDS011;30487;48.716;9.272;2022-11-20T02:30:16;3.08;;;2.00;;
44766;SDS011;30487;48.716;9.272;2022-11-20T02:32:42;3.35;;;1.65;;
44766;SDS011;30487;48.716;9.272;2022-11-20T02:35:09;5.03;;;1.55;;
44766;SDS011;30487;48.716;9.272;2022-11-20T02:37:57;4.88;;;2.20;;
44766;SDS011;30487;48.716;9.272;2022-11-20T02:40:25;3.75;;;2.08;;
44766;SDS011;30487;48.716;9.272;2022-11-20T02:42:51;8.07;;;2.03;;
44766;SDS011;30487;48.716;9.272;2022-11-20T02:45:17;4.13;;;2.30;;
44766;SDS011;30487;48.716;9.272;2022-11-20T02:47:43;5.07;;;2.22;;
44766;SDS011;30487;48.716;9.272;2022-11-20T02:50:09;3.88;;;1.80;;
44766;SDS011;30487;48.716;9.272;2022-11-20T02:52:34;3.25;;;2.10;;
44766;SDS011;30487;48.716;9.272;2022-11-20T02:55:00;5.00;;;2.20;;
44766;SDS011;30487;48.716;9.272;2022-11-20T02:57:25;5.95;;;2.45;;
44766;SDS011;30487;48.716;9.272;2022-11-20T02:59:51;5.63;;;2.20;;
44766;SDS011;30487;48.716;9.272;2022-11-20T03:02:17;4.85;;;2.13;;
44766;SDS011;30487;48.716;9.272;2022-11-20T03:04:42;4.38;;;2.28;;
44766;SDS011;30487;48.716;9.272;2022-11-20T03:07:08;4.40;;;2.35;;
44766;SDS011;30487;48.716;9.272;2022-11-20T03:09:34;5.35;;;2.33;;
44766;SDS011;30487;48.716;9.272;2022-11-20T03:12:00;4.13;;;2.22;;
44766;SDS011;30487;48.716;9.272;2022-11-20T03:14:25;4.15;;;2.40;;
44766;SDS011;30487;48.716;9.272;2022-11-20T03:16:51;5.57;;;2.47;;
44766;SDS011;30487;48.716;9.272;2022-11-20T03:19:17;5.55;;;2.60;;
44766;SDS011;30487;48.716;9.272;2022-11-20T03:21:42;4.10;;;2.40;;
44766;SDS011;30487;48.716;9.272;2022-11-20T03:24:08;6.47;;;2.47;;
44766;SDS011;30487;48.716;9.272;2022-11-20T03:26:34;4.63;;;2.08;;
44766;SDS011;30487;48.716;9.272;2022-11-20T03:29:00;4.18;;;2.15;;
44766;SDS011;30487;48.716;9.272;2022-11-20T03:31:29;3.65;;;2.13;;
44766;SDS011;30487;48.716;9.272;2022-11-20T03:33:59;6.10;;;2.20;;
44766;SDS011;30487;48.716;9.272;2022-11-20T03:36:26;6.25;;;2.10;;
44766;SDS011;30487;48.716;9.272;2022-11-20T03:38:53;4.47;;;2.17;;
44766;SDS011;30487;48.716;9.272;2022-11-20T03:41:20;3.22;;;2.20;;
44766;SDS011;30487;48.716;9.272;2022-11-20T03:43:48;6.03;;;2.38;;
44766;SDS011;30487;48.716;9.272;2022-11-20T03:46:15;3.97;;;2.13;;
44766;SDS011;30487;48.716;9.272;2022-11-20T03:48:41;4.47;;;2.38;;
44766;SDS011;30487;48.716;9.272;2022-11-20T03:51:13;5.07;;;2.08;;
44766;SDS011;30487;48.716;9.272;2022-11-20T03:53:43;3.65;;;2.03;;
44766;SDS011;30487;48.716;9.272;2022-11-20T03:56:10;4.25;;;2.08;;
44766;SDS011;30487;48.716;9.272;2022-11-20T03:58:37;3.95;;;1.90;;
44766;SDS011;30487;48.716;9.272;2022-11-20T04:01:17;8.00;;;2.17;;
44766;SDS011;30487;48.716;9.272;2022-11-20T04:03:44;3.63;;;1.80;;
44766;SDS011;30487;48.716;9.272;2022-11-20T04:06:14;3.78;;;2.03;;
44766;SDS011;30487;48.716;9.272;2022-11-20T04:08:41;4.05;;;2.00;;
44766;SDS011;30487;48.716;9.272;2022-11-20T04:11:17;3.67;;;1.90;;
44766;SDS011;30487;48.716;9.272;2022-11-20T04:13:48;3.22;;;1.88;;
44766;SDS011;30487;48.716;9.272;2022-11-20T04:16:19;4.25;;;2.20;;
44766;SDS011;30487;48.716;9.272;2022-11-20T04:18:46;3.47;;;2.03;;
44766;SDS011;30487;48.716;9.272;2022-11-20T04:21:12;4.70;;;2.00;;
44766;SDS011;30487;48.716;9.272;2022-11-20T04:23:37;5.28;;;1.60;;
44766;SDS011;30487;48.716;9.272;2022-11-20T04:26:04;5.60;;;1.83;;
44766;SDS011;30487;48.716;9.272;2022-11-20T04:28:31;4.32;;;1.85;;
44766;SDS011;30487;48.716;9.272;2022-11-20T04:31:04;4.47;;;1.77;;
44766;SDS011;30487;48.716;9.272;2022-11-20T04:33:31;3.45;;;1.55;;
44766;SDS011;30487;48.716;9.272;2022-11-20T04:36:01;4.20;;;1.73;;
44766;SDS011;30487;48.716;9.272;2022-11-20T04:38:30;3.05;;;1.65;;
44766;SDS011;30487;48.716;9.272;2022-11-20T04:40:57;3.38;;;1.80;;
44766;SDS011;30487;48.716;9.272;2022-11-20T04:43:26;3.78;;;1.85;;
44766;SDS011;30487;48.716;9.272;2022-11-20T04:45:56;3.15;;;1.80;;
44766;SDS011;30487;48.716;9.272;2022-11-20T04:48:23;5.40;;;1.88;;
44766;SDS011;30487;48.716;9.272;2022-11-20T04:50:49;5.85;;;1.33;;
44766;SDS011;30487;48.716;9.272;2022-11-20T04:53:16;3.55;;;1.45;;
44766;SDS011;30487;48.716;9.272;2022-11-20T04:55:42;2.50;;;1.52;;
44766;SDS011;30487;48.716;9.272;2022-11-20T04:58:07;4.10;;;1.77;;
44766;SDS011;30487;48.716;9.272;2022-11-20T05:00:33;4.30;;;1.90;;
44766;SDS011;30487;48.716;9.272;2022-11-20T05:02:58;4.50;;;2.15;;
44766;SDS011;30487;48.716;9.272;2022-11-20T05:05:24;5.60;;;2.20;;
44766;SDS011;30487;48.716;9.272;2022-11-20T05:07:50;3.45;;;1.63;;
44766;SDS011;30487;48.716;9.272;2022-11-20T05:10:15;3.95;;;2.22;;
44766;SDS011;30487;48.716;9.272;2022-11-20T05:12:41;3.95;;;1.63;;
44766;SDS011;30487;48.716;9.272;2022-11-20T05:15:07;3.72;;;1.80;;
44766;SDS011;30487;48.716;9.272;2022-11-20T05:17:33;2.92;;;1.55;;
44766;SDS011;30487;48.716;9.272;2022-11-20T05:19:58;3.45;;;1.70;;
44766;SDS011;30487;48.716;9.272;2022-11-20T05:22:24;3.88;;;1.90;;
44766;SDS011;30487;48.716;9.272;2022-11-20T05:24:49;4.43;;;1.63;;
44766;SDS011;30487;48.716;9.272;2022-11-20T05:27:15;2.95;;;1.63;;
44766;SDS011;30487;48.716;9.272;2022-11-20T05:29:40;2.83;;;1.60;;
44766;SDS011;30487;48.716;9.272;2022-11-20T05:32:06;4.07;;;1.60;;
44766;SDS011;30487;48.716;9.272;2022-11-20T05:34:34;5.00;;;1.70;;
44766;SDS011;30487;48.716;9.272;2022-11-20T05:37:00;4.40;;;1.80;;
44766;SDS011;30487;48.716;9.272;2022-11-20T05:39:26;4.75;;;1.67;;
44766;SDS011;30487;48.716;9.272;2022-11-20T05:41:51;4.10;;;1.50;;
44766;SDS011;30487;48.716;9.272;2022-11-20T05:44:37;4.30;;;1.30;;
44766;SDS011;30487;48.716;9.272;2022-11-20T05:47:02;3.03;;;1.30;;
44766;SDS011;30487;48.716;9.272;2022-11-20T05:49:28;2.53;;;1.33;;
44766;SDS011;30487;48.716;9.272;2022-11-20T05:51:53;2.75;;;1.30;;
44766;SDS011;30487;48.716;9.272;2022-11-20T05:54:19;3.88;;;1.40;;
44766;SDS011;30487;48.716;9.272;2022-11-20T05:56:44;3.15;;;1.20;;
44766;SDS011;30487;48.716;9.272;2022-11-20T05:59:10;5.38;;;1.50;;
44766;SDS011;30487;48.716;9.272;2022-11-20T06:01:35;2.90;;;1.30;;
44766;SDS011;30487;48.716;9.272;2022-11-20T06:04:01;6.75;;;1.33;;
44766;SDS011;30487;48.716;9.272;2022-11-20T06:06:27;5.95;;;1.58;;
44766;SDS011;30487;48.716;9.272;2022-11-20T06:08:53;3.20;;;1.20;;
44766;SDS011;30487;48.716;9.272;2022-11-20T06:11:20;3.63;;;1.30;;
44766;SDS011;30487;48.716;9.272;2022-11-20T06:13:46;3.72;;;1.25;;
44766;SDS011;30487;48.716;9.272;2022-11-20T06:16:13;2.83;;;1.38;;
44766;SDS011;30487;48.716;9.272;2022-11-20T06:18:40;2.25;;;1.10;;
44766;SDS011;30487;48.716;9.272;2022-11-20T06:21:06;3.05;;;1.30;;
44766;SDS011;30487;48.716;9.272;2022-11-20T06:23:36;4.25;;;1.50;;
44766;SDS011;30487;48.716;9.272;2022-11-20T06:26:03;3.97;;;1.42;;
44766;SDS011;30487;48.716;9.272;2022-11-20T06:28:30;3.08;;;1.38;;
44766;SDS011;30487;48.716;9.272;2022-11-20T06:30:57;2.58;;;1.30;;
44766;SDS011;30487;48.716;9.272;2022-11-20T06:33:23;2.35;;;1.33;;
44766;SDS011;30487;48.716;9.272;2022-11-20T06:35:48;2.60;;;1.60;;
44766;SDS011;30487;48.716;9.272;2022-11-20T06:38:14;1.85;;;1.20;;
44766;SDS011;30487;48.716;9.272;2022-11-20T06:40:42;2.40;;;1.38;;
44766;SDS011;30487;48.716;9.272;2022-11-20T06:43:09;2.80;;;1.38;;
44766;SDS011;30487;48.716;9.272;2022-11-20T06:45:35;3.20;;;1.45;;
44766;SDS011;30487;48.716;9.272;2022-11-20T06:48:01;3.40;;;1.25;;
44766;SDS011;30487;48.716;9.272;2022-11-20T06:50:26;3.33;;;1.50;;
44766;SDS011;30487;48.716;9.272;2022-11-20T06:52:52;3.10;;;1.40;;
44766;SDS011;30487;48.716;9.272;2022-11-20T06:55:17;3.47;;;1.55;;
44766;SDS011;30487;48.716;9.272;2022-11-20T06:57:43;3.50;;;1.40;;
44766;SDS011;30487;48.716;9.272;2022-11-20T07:00:09;3.08;;;1.40;;
44766;SDS011;30487;48.716;9.272;2022-11-20T07:02:35;3.47;;;1.60;;
44766;SDS011;30487;48.716;9.272;2022-11-20T07:05:00;3.75;;;1.50;;
44766;SDS011;30487;48.716;9.272;2022-11-20T07:07:26;4.38;;;1.70;;
44766;SDS011;30487;48.716;9.272;2022-11-20T07:09:51;4.07;;;1.60;;
44766;SDS011;30487;48.716;9.272;2022-11-20T07:12:17;4.30;;;1.75;;
44766;SDS011;30487;48.716;9.272;2022-11-20T07:14:42;4.43;;;1.35;;
44766;SDS011;30487;48.716;9.272;2022-11-20T07:17:08;2.45;;;1.58;;
44766;SDS011;30487;48.716;9.272;2022-11-20T07:19:33;5.50;;;1.50;;
44766;SDS011;30487;48.716;9.272;2022-11-20T07:21:59;2.53;;;1.23;;
44766;SDS011;30487;48.716;9.272;2022-11-20T07:24:25;2.45;;;1.30;;
44766;SDS011;30487;48.716;9.272;2022-11-20T07:26:50;3.47;;;1.35;;
44766;SDS011;30487;48.716;9.272;2022-11-20T07:29:16;3.83;;;1.70;;
44766;SDS011;30487;48.716;9.272;2022-11-20T07:31:42;3.25;;;1.42;;
44766;SDS011;30487;48.716;9.272;2022-11-20T07:34:08;3.70;;;1.63;;
44766;SDS011;30487;48.716;9.272;2022-11-20T07:36:34;2.80;;;1.48;;
44766;SDS011;30487;48.716;9.272;2022-11-20T07:38:59;3.08;;;1.73;;
44766;SDS011;30487;48.716;9.272;2022-11-20T07:41:26;5.35;;;1.40;;
44766;SDS011;30487;48.716;9.272;2022-11-20T07:43:52;3.03;;;1.42;;
44766;SDS011;30487;48.716;9.272;2022-11-20T07:46:18;2.90;;;1.33;;
44766;SDS011;30487;48.716;9.272;2022-11-20T07:48:44;2.45;;;1.30;;
44766;SDS011;30487;48.716;9.272;2022-11-20T07:51:09;3.85;;;1.20;;
44766;SDS011;30487;48.716;9.272;2022-11-20T07:53:35;4.53;;;1.80;;
44766;SDS011;30487;48.716;9.272;2022-11-20T07:56:01;3.95;;;1.40;;
44766;SDS011;30487;48.716;9.272;2022-11-20T07:58:28;2.80;;;1.40;;
44766;SDS011;30487;48.716;9.272;2022-11-20T08:00:55;3.58;;;1.42;;
44766;SDS011;30487;48.716;9.272;2022-11-20T08:03:20;2.92;;;1.27;;
44766;SDS011;30487;48.716;9.272;2022-11-20T08:05:46;2.60;;;1.20;;
44766;SDS011;30487;48.716;9.272;2022-11-20T08:08:12;1.92;;;1.20;;
44766;SDS011;30487;48.716;9.272;2022-11-20T08:10:37;1.98;;;1.10;;
44766;SDS011;30487;48.716;9.272;2022-11-20T08:13:03;3.28;;;1.20;;
44766;SDS011;30487;48.716;9.272;2022-11-20T08:15:49;6.38;;;1.27;;
44766;SDS011;30487;48.716;9.272;2022-11-20T08:18:18;2.80;;;1.40;;
44766;SDS011;30487;48.716;9.272;2022-11-20T08:20:44;3.05;;;1.30;;
44766;SDS011;30487;48.716;9.272;2022-11-20T08:23:10;3.88;;;1.23;;
44766;SDS011;30487;48.716;9.272;2022-11-20T08:25:36;2.83;;;1.40;;
44766;SDS011;30487;48.716;9.272;2022-11-20T08:28:06;3.05;;;1.20;;
44766;SDS011;30487;48.716;9.272;2022-11-20T08:30:34;2.95;;;1.13;;
44766;SDS011;30487;48.716;9.272;2022-11-20T08:33:02;4.65;;;1.23;;
44766;SDS011;30487;48.716;9.272;2022-11-20T08:35:32;3.08;;;1.10;;
44766;SDS011;30487;48.716;9.272;2022-11-20T08:37:58;4.75;;;1.30;;
44766;SDS011;30487;48.716;9.272;2022-11-20T08:40:24;3.38;;;1.38;;
44766;SDS011;30487;48.716;9.272;2022-11-20T08:42:50;2.00;;;1.10;;
44766;SDS011;30487;48.716;9.272;2022-11-20T08:45:16;3.47;;;1.50;;
44766;SDS011;30487;48.716;9.272;2022-11-20T08:47:43;2.45;;;1.50;;
44766;SDS011;30487;48.716;9.272;2022-11-20T08:50:10;2.75;;;1.30;;
44766;SDS011;30487;48.716;9.272;2022-11-20T08:52:37;2.78;;;1.23;;
44766;SDS011;30487;48.716;9.272;2022-11-20T08:55:03;5.03;;;1.20;;
44766;SDS011;30487;48.716;9.272;2022-11-20T08:57:33;3.58;;;1.42;;
44766;SDS011;30487;48.716;9.272;2022-11-20T09:00:00;2.17;;;1.40;;
44766;SDS011;30487;48.716;9.272;2022-11-20T09:02:27;2.10;;;1.13;;
44766;SDS011;30487;48.716;9.272;2022-11-20T09:04:53;3.30;;;1.02;;
44766;SDS011;30487;48.716;9.272;2022-11-20T09:07:19;2.30;;;1.30;;
44766;SDS011;30487;48.716;9.272;2022-11-20T09:09:45;2.22;;;1.10;;
44766;SDS011;30487;48.716;9.272;2022-11-20T09:12:10;1.75;;;1.10;;
44766;SDS011;30487;48.716;9.272;2022-11-20T09:14:36;2.15;;;1.20;;
44766;SDS011;30487;48.716;9.272;2022-11-20T09:17:01;3.92;;;1.05;;
44766;SDS011;30487;48.716;9.272;2022-11-20T09:19:27;1.63;;;0.95;;
44766;SDS011;30487;48.716;9.272;2022-11-20T09:21:53;2.28;;;0.90;;
44766;SDS011;30487;48.716;9.272;2022-11-20T09:24:18;2.30;;;1.00;;
44766;SDS011;30487;48.716;9.272;2022-11-20T09:26:45;1.48;;;0.80;;
44766;SDS011;30487;48.716;9.272;2022-11-20T09:29:11;1.30;;;0.75;;
44766;SDS011;30487;48.716;9.272;2022-11-20T09:31:37;1.10;;;0.55;;
44766;SDS011;30487;48.716;9.272;2022-11-20T09:34:02;3.35;;;0.70;;
44766;SDS011;30487;48.716;9.272;2022-11-20T09:36:28;1.10;;;0.70;;
44766;SDS011;30487;48.716;9.272;2022-11-20T09:38:53;1.15;;;0.55;;
44766;SDS011;30487;48.716;9.272;2022-11-20T09:47:28;1.55;;;0.60;;
44766;SDS011;30487;48.716;9.272;2022-11-20T09:55:21;0.82;;;0.40;;
44766;SDS011;30487;48.716;9.272;2022-11-20T09:57:48;1.20;;;0.50;;
44766;SDS011;30487;48.716;9.272;2022-11-20T10:00:17;1.02;;;0.40;;
44766;SDS011;30487;48.716;9.272;2022-11-20T10:02:53;1.02;;;0.40;;
44766;SDS011;30487;48.716;9.272;2022-11-20T10:10:46;1.83;;;0.50;;
44766;SDS011;30487;48.716;9.272;2022-11-20T10:22:15;1.08;;;0.47;;
44766;SDS011;30487;48.716;9.272;2022-11-20T10:24:44;2.13;;;0.30;;
44766;SDS011;30487;48.716;9.272;2022-11-20T10:27:35;0.90;;;0.50;;
44766;SDS011;30487;48.716;9.272;2022-11-20T10:30:23;1.30;;;0.50;;
44766;SDS011;30487;48.716;9.272;2022-11-20T10:35:52;0.80;;;0.50;;
44766;SDS011;30487;48.716;9.272;2022-11-20T10:38:31;1.75;;;0.47;;
44766;SDS011;30487;48.716;9.272;2022-11-20T10:41:00;1.58;;;0.30;;
44766;SDS011;30487;48.716;9.272;2022-11-20T10:43:46;0.98;;;0.50;;
44766;SDS011;30487;48.716;9.272;2022-11-20T10:46:18;1.00;;;0.30;;
44766;SDS011;30487;48.716;9.272;2022-11-20T10:48:49;1.60;;;0.45;;
44766;SDS011;30487;48.716;9.272;2022-11-20T10:56:33;1.27;;;0.60;;
44766;SDS011;30487;48.716;9.272;2022-11-20T10:59:07;2.03;;;0.40;;
44766;SDS011;30487;48.716;9.272;2022-11-20T11:01:47;1.15;;;0.50;;
44766;SDS011;30487;48.716;9.272;2022-11-20T11:04:18;1.30;;;0.50;;
44766;SDS011;30487;48.716;9.272;2022-11-20T11:07:15;0.45;;;0.35;;
44766;SDS011;30487;48.716;9.272;2022-11-20T11:09:54;0.70;;;0.47;;
44766;SDS011;30487;48.716;9.272;2022-11-20T11:12:21;1.30;;;0.57;;
44766;SDS011;30487;48.716;9.272;2022-11-20T11:14:50;1.60;;;0.55;;
44766;SDS011;30487;48.716;9.272;2022-11-20T11:20:15;0.75;;;0.40;;
44766;SDS011;30487;48.716;9.272;2022-11-20T11:25:24;1.13;;;0.60;;
44766;SDS011;30487;48.716;9.272;2022-11-20T11:30:28;1.08;;;0.50;;
44766;SDS011;30487;48.716;9.272;2022-11-20T11:33:02;2.90;;;0.70;;
44766;SDS011;30487;48.716;9.272;2022-11-20T11:35:30;1.30;;;0.65;;
44766;SDS011;30487;48.716;9.272;2022-11-20T11:38:03;3.92;;;0.70;;
44766;SDS011;30487;48.716;9.272;2022-11-20T11:40:32;1.73;;;0.80;;
44766;SDS011;30487;48.716;9.272;2022-11-20T11:43:01;2.75;;;0.80;;
44766;SDS011;30487;48.716;9.272;2022-11-20T11:45:30;1.48;;;0.75;;
44766;SDS011;30487;48.716;9.272;2022-11-20T11:48:00;2.58;;;0.82;;
44766;SDS011;30487;48.716;9.272;2022-11-20T11:50:28;1.30;;;0.50;;
44766;SDS011;30487;48.716;9.272;2022-11-20T11:55:43;5.13;;;0.80;;
44766;SDS011;30487;48.716;9.272;2022-11-20T11:58:32;1.73;;;0.63;;
44766;SDS011;30487;48.716;9.272;2022-11-20T12:01:15;3.10;;;0.52;;
44766;SDS011;30487;48.716;9.272;2022-11-20T12:06:46;3.28;;;0.82;;
44766;SDS011;30487;48.716;9.272;2022-11-20T12:09:16;3.35;;;0.73;;
44766;SDS011;30487;48.716;9.272;2022-11-20T12:11:47;1.88;;;0.80;;
44766;SDS011;30487;48.716;9.272;2022-11-20T12:17:04;2.83;;;0.60;;
44766;SDS011;30487;48.716;9.272;2022-11-20T12:19:33;2.58;;;0.70;;
44766;SDS011;30487;48.716;9.272;2022-11-20T12:30:14;1.75;;;0.63;;
44766;SDS011;30487;48.716;9.272;2022-11-20T12:33:01;1.75;;;0.57;;
44766;SDS011;30487;48.716;9.272;2022-11-20T12:35:57;2.03;;;0.50;;
44766;SDS011;30487;48.716;9.272;2022-11-20T12:41:40;1.02;;;0.50;;
44766;SDS011;30487;48.716;9.272;2022-11-20T12:50:28;3.38;;;0.65;;
44766;SDS011;30487;48.716;9.272;2022-11-20T12:55:47;1.63;;;0.63;;
44766;SDS011;30487;48.716;9.272;2022-11-20T12:58:31;0.45;;;0.32;;
44766;SDS011;30487;48.716;9.272;2022-11-20T13:01:24;2.30;;;0.60;;
44766;SDS011;30487;48.716;9.272;2022-11-20T13:04:13;5.05;;;0.70;;
44766;SDS011;30487;48.716;9.272;2022-11-20T13:06:45;1.20;;;0.50;;
44766;SDS011;30487;48.716;9.272;2022-11-20T13:09:11;3.70;;;0.60;;
44766;SDS011;30487;48.716;9.272;2022-11-20T13:19:52;2.58;;;0.63;;
44766;SDS011;30487;48.716;9.272;2022-11-20T13:22:27;1.58;;;0.95;;
44766;SDS011;30487;48.716;9.272;2022-11-20T13:24:54;2.78;;;0.82;;
44766;SDS011;30487;48.716;9.272;2022-11-20T13:27:21;2.20;;;0.50;;
44766;SDS011;30487;48.716;9.272;2022-11-20T13:32:50;3.80;;;0.70;;
44766;SDS011;30487;48.716;9.272;2022-11-20T13:35:27;1.30;;;0.50;;
44766;SDS011;30487;48.716;9.272;2022-11-20T13:40:38;3.00;;;0.60;;
44766;SDS011;30487;48.716;9.272;2022-11-20T13:43:21;2.53;;;0.60;;
44766;SDS011;30487;48.716;9.272;2022-11-20T13:46:05;0.98;;;0.45;;
44766;SDS011;30487;48.716;9.272;2022-11-20T13:48:33;3.22;;;0.60;;
44766;SDS011;30487;48.716;9.272;2022-11-20T13:51:12;1.45;;;0.60;;
44766;SDS011;30487;48.716;9.272;2022-11-20T13:54:07;1.23;;;0.40;;
44766;SDS011;30487;48.716;9.272;2022-11-20T13:56:39;2.20;;;0.57;;
44766;SDS011;30487;48.716;9.272;2022-11-20T14:02:15;0.70;;;0.40;;
44766;SDS011;30487;48.716;9.272;2022-11-20T14:04:52;2.72;;;0.50;;
44766;SDS011;30487;48.716;9.272;2022-11-20T14:07:21;1.45;;;0.68;;
44766;SDS011;30487;48.716;9.272;2022-11-20T14:09:51;1.17;;;0.60;;
44766;SDS011;30487;48.716;9.272;2022-11-20T14:12:27;1.65;;;0.50;;
44766;SDS011;30487;48.716;9.272;2022-11-20T14:14:55;3.30;;;0.88;;
44766;SDS011;30487;48.716;9.272;2022-11-20T14:17:22;1.75;;;0.63;;
44766;SDS011;30487;48.716;9.272;2022-11-20T14:19:54;1.77;;;0.50;;
44766;SDS011;30487;48.716;9.272;2022-11-20T14:22:31;3.25;;;0.50;;
44766;SDS011;30487;48.716;9.272;2022-11-20T14:27:38;2.17;;;0.50;;
44766;SDS011;30487;48.716;9.272;2022-11-20T14:30:11;1.23;;;0.57;;
44766;SDS011;30487;48.716;9.272;2022-11-20T14:32:39;6.47;;;0.50;;
44766;SDS011;30487;48.716;9.272;2022-11-20T14:35:13;1.58;;;0.50;;
44766;SDS011;30487;48.716;9.272;2022-11-20T14:37:46;1.05;;;0.50;;
44766;SDS011;30487;48.716;9.272;2022-11-20T14:40:23;2.40;;;0.50;;
44766;SDS011;30487;48.716;9.272;2022-11-20T14:42:51;4.28;;;0.57;;
44766;SDS011;30487;48.716;9.272;2022-11-20T14:45:17;1.65;;;0.60;;
44766;SDS011;30487;48.716;9.272;2022-11-20T14:47:44;1.13;;;0.50;;
44766;SDS011;30487;48.716;9.272;2022-11-20T14:50:19;1.13;;;0.40;;
44766;SDS011;30487;48.716;9.272;2022-11-20T14:52:53;4.80;;;0.80;;
44766;SDS011;30487;48.716;9.272;2022-11-20T14:55:33;1.85;;;0.40;;
44766;SDS011;30487;48.716;9.272;2022-11-20T14:58:04;2.10;;;0.65;;
44766;SDS011;30487;48.716;9.272;2022-11-20T15:00:31;1.98;;;0.60;;
44766;SDS011;30487;48.716;9.272;2022-11-20T15:02:58;2.83;;;0.70;;
44766;SDS011;30487;48.716;9.272;2022-11-20T15:05:25;1.95;;;0.70;;
44766;SDS011;30487;48.716;9.272;2022-11-20T15:08:08;1.27;;;0.63;;
44766;SDS011;30487;48.716;9.272;2022-11-20T15:10:35;2.50;;;0.70;;
44766;SDS011;30487;48.716;9.272;2022-11-20T15:13:05;3.25;;;0.90;;
44766;SDS011;30487;48.716;9.272;2022-11-20T15:15:50;1.73;;;0.60;;
44766;SDS011;30487;48.716;9.272;2022-11-20T15:18:21;2.83;;;0.60;;
44766;SDS011;30487;48.716;9.272;2022-11-20T15:20:50;2.10;;;0.57;;
44766;SDS011;30487;48.716;9.272;2022-11-20T15:23:17;2.20;;;0.52;;
44766;SDS011;30487;48.716;9.272;2022-11-20T15:25:43;1.92;;;0.68;;
44766;SDS011;30487;48.716;9.272;2022-11-20T15:30:56;3.80;;;0.60;;
44766;SDS011;30487;48.716;9.272;2022-11-20T15:33:22;1.17;;;0.63;;
44766;SDS011;30487;48.716;9.272;2022-11-20T15:35:48;1.23;;;0.70;;
44766;SDS011;30487;48.716;9.272;2022-11-20T15:38:14;1.00;;;0.50;;
44766;SDS011;30487;48.716;9.272;2022-11-20T15:40:39;1.38;;;0.63;;
44766;SDS011;30487;48.716;9.272;2022-11-20T15:43:05;1.15;;;0.80;;
44766;SDS011;30487;48.716;9.272;2022-11-20T15:45:39;1.90;;;0.60;;
44766;SDS011;30487;48.716;9.272;2022-11-20T15:48:08;1.95;;;0.70;;
44766;SDS011;30487;48.716;9.272;2022-11-20T15:51:05;3.13;;;0.80;;
44766;SDS011;30487;48.716;9.272;2022-11-20T15:53:34;1.58;;;0.52;;
44766;SDS011;30487;48.716;9.272;2022-11-20T15:56:00;1.73;;;0.50;;
44766;SDS011;30487;48.716;9.272;2022-11-20T15:58:26;1.17;;;0.50;;
44766;SDS011;30487;48.716;9.272;2022-11-20T16:00:51;2.25;;;0.77;;
44766;SDS011;30487;48.716;9.272;2022-11-20T16:03:17;1.20;;;0.65;;
44766;SDS011;30487;48.716;9.272;2022-11-20T16:05:44;3.47;;;1.00;;
44766;SDS011;30487;48.716;9.272;2022-11-20T16:08:10;2.15;;;1.02;;
44766;SDS011;30487;48.716;9.272;2022-11-20T16:10:35;1.63;;;0.90;;
44766;SDS011;30487;48.716;9.272;2022-11-20T16:13:02;3.25;;;1.10;;
44766;SDS011;30487;48.716;9.272;2022-11-20T16:15:51;2.15;;;0.85;;
44766;SDS011;30487;48.716;9.272;2022-11-20T16:18:20;2.08;;;0.90;;
44766;SDS011;30487;48.716;9.272;2022-11-20T16:20:47;2.45;;;1.10;;
44766;SDS011;30487;48.716;9.272;2022-11-20T16:23:15;3.08;;;1.20;;
44766;SDS011;30487;48.716;9.272;2022-11-20T16:25:41;2.72;;;1.00;;
44766;SDS011;30487;48.716;9.272;2022-11-20T16:28:08;3.92;;;1.08;;
44766;SDS011;30487;48.716;9.272;2022-11-20T16:30:34;4.15;;;1.00;;
44766;SDS011;30487;48.716;9.272;2022-11-20T16:33:00;1.95;;;1.00;;
44766;SDS011;30487;48.716;9.272;2022-11-20T16:35:27;4.43;;;1.08;;